sensor_id;sensor_type;location;lat;lon;timestamp;P1;P2;P0
44933;PMS3003;30667;43.614;1.442;2023-05-20T17:07:35;8.25;7.75;4.75
44933;PMS3003;30667;43.614;1.442;2023-05-20T17:10:02;10.00;9.60;4.80
44933;PMS3003;30667;43.614;1.442;2023-05-20T17:12:27;8.00;8.00;5.00
44933;PMS3003;30667;43.614;1.442;2023-05-20T17:14:53;9.25;8.75;4.25
44933;PMS3003;30667;43.614;1.442;2023-05-20T17:17:18;8.50;8.00;4.50
44933;PMS3003;30667;43.614;1.442;2023-05-20T17:19:45;10.60;9.00;4.80
44933;PMS3003;30667;43.614;1.442;2023-05-20T17:22:10;10.00;10.00;6.00
44933;PMS3003;30667;43.614;1.442;2023-05-20T17:24:36;10.00;9.75;6.00
44933;PMS3003;30667;43.614;1.442;2023-05-20T17:27:01;8.50;8.50;4.75
44933;PMS3003;30667;43.614;1.442;2023-05-20T17:29:27;8.80;8.60;5.20
44933;PMS3003;30667;43.614;1.442;2023-05-20T17:31:53;11.00;10.00;7.00
44933;PMS3003;30667;43.614;1.442;2023-05-20T17:34:18;11.00;10.00;6.50
44933;PMS3003;30667;43.614;1.442;2023-05-20T17:36:44;11.75;10.00;5.00
44933;PMS3003;30667;43.614;1.442;2023-05-20T17:39:09;9.50;9.50;5.50
44933;PMS3003;30667;43.614;1.442;2023-05-20T17:41:35;10.00;10.00;7.75
44933;PMS3003;30667;43.614;1.442;2023-05-20T17:44:00;10.75;10.50;7.00
44933;PMS3003;30667;43.614;1.442;2023-05-20T17:46:26;9.50;9.50;5.00
44933;PMS3003;30667;43.614;1.442;2023-05-20T17:48:51;10.50;9.75;6.25
44933;PMS3003;30667;43.614;1.442;2023-05-20T17:51:17;13.00;10.50;6.00
44933;PMS3003;30667;43.614;1.442;2023-05-20T17:53:42;12.50;10.50;5.00
44933;PMS3003;30667;43.614;1.442;2023-05-20T17:56:08;9.75;9.75;6.50
44933;PMS3003;30667;43.614;1.442;2023-05-20T17:58:33;12.75;12.75;6.00
44933;PMS3003;30667;43.614;1.442;2023-05-20T18:00:58;8.50;8.25;5.00
44933;PMS3003;30667;43.614;1.442;2023-05-20T18:03:24;10.50;9.50;6.00
44933;PMS3003;30667;43.614;1.442;2023-05-20T18:05:49;13.75;10.25;5.25
44933;PMS3003;30667;43.614;1.442;2023-05-20T18:08:15;10.25;9.75;7.00
44933;PMS3003;30667;43.614;1.442;2023-05-20T18:10:43;10.00;10.00;7.00
44933;PMS3003;30667;43.614;1.442;2023-05-20T18:13:08;11.00;10.00;6.25
44933;PMS3003;30667;43.614;1.442;2023-05-20T18:15:34;9.25;9.25;5.00
44933;PMS3003;30667;43.614;1.442;2023-05-20T18:17:59;13.00;11.00;7.00
44933;PMS3003;30667;43.614;1.442;2023-05-20T18:20:25;13.00;10.60;7.00
44933;PMS3003;30667;43.614;1.442;2023-05-20T18:22:50;8.75;8.00;4.25
44933;PMS3003;30667;43.614;1.442;2023-05-20T18:25:22;11.00;11.00;7.40
44933;PMS3003;30667;43.614;1.442;2023-05-20T18:27:47;10.75;10.50;5.00
44933;PMS3003;30667;43.614;1.442;2023-05-20T18:30:13;11.00;10.25;6.00
44933;PMS3003;30667;43.614;1.442;2023-05-20T18:32:38;11.00;10.75;6.75
44933;PMS3003;30667;43.614;1.442;2023-05-20T18:35:04;9.50;9.00;5.50
44933;PMS3003;30667;43.614;1.442;2023-05-20T18:37:30;9.00;9.00;5.20
44933;PMS3003;30667;43.614;1.442;2023-05-20T18:39:55;9.50;9.00;5.25
44933;PMS3003;30667;43.614;1.442;2023-05-20T18:42:22;9.40;9.40;6.00
44933;PMS3003;30667;43.614;1.442;2023-05-20T18:44:48;12.00;10.25;6.75
44933;PMS3003;30667;43.614;1.442;2023-05-20T18:47:13;10.25;10.00;6.00
44933;PMS3003;30667;43.614;1.442;2023-05-20T18:49:40;10.80;9.80;7.00
44933;PMS3003;30667;43.614;1.442;2023-05-20T18:52:05;11.25;10.75;6.75
44933;PMS3003;30667;43.614;1.442;2023-05-20T18:54:31;10.00;9.00;5.00
44933;PMS3003;30667;43.614;1.442;2023-05-20T18:56:56;12.75;11.25;7.00
44933;PMS3003;30667;43.614;1.442;2023-05-20T18:59:22;11.25;10.00;5.75
44933;PMS3003;30667;43.614;1.442;2023-05-20T19:01:47;14.50;13.50;7.00
44933;PMS3003;30667;43.614;1.442;2023-05-20T19:04:12;11.00;10.00;5.00
44933;PMS3003;30667;43.614;1.442;2023-05-20T19:06:38;11.75;10.75;7.50
44933;PMS3003;30667;43.614;1.442;2023-05-20T19:09:04;12.20;12.20;7.80
44933;PMS3003;30667;43.614;1.442;2023-05-20T19:11:30;10.00;10.00;5.20
44933;PMS3003;30667;43.614;1.442;2023-05-20T19:13:56;12.40;10.40;6.60
44933;PMS3003;30667;43.614;1.442;2023-05-20T19:16:24;10.00;10.00;5.00
44933;PMS3003;30667;43.614;1.442;2023-05-20T19:18:50;11.00;11.00;6.60
44933;PMS3003;30667;43.614;1.442;2023-05-20T19:21:16;11.25;11.25;7.75
44933;PMS3003;30667;43.614;1.442;2023-05-20T19:23:41;13.25;10.25;6.25
44933;PMS3003;30667;43.614;1.442;2023-05-20T19:26:07;11.25;11.25;7.00
44933;PMS3003;30667;43.614;1.442;2023-05-20T19:28:33;12.00;11.25;7.50
44933;PMS3003;30667;43.614;1.442;2023-05-20T19:30:58;13.50;12.75;7.50
44933;PMS3003;30667;43.614;1.442;2023-05-20T19:33:24;10.00;9.75;7.00
44933;PMS3003;30667;43.614;1.442;2023-05-20T19:35:49;12.50;11.00;7.50
44933;PMS3003;30667;43.614;1.442;2023-05-20T19:38:15;13.00;13.00;8.00
44933;PMS3003;30667;43.614;1.442;2023-05-20T19:40:41;11.00;11.00;7.00
44933;PMS3003;30667;43.614;1.442;2023-05-20T19:43:07;14.40;12.20;7.00
44933;PMS3003;30667;43.614;1.442;2023-05-20T19:45:33;15.00;14.00;9.00
44933;PMS3003;30667;43.614;1.442;2023-05-20T19:48:00;13.60;11.60;7.40
44933;PMS3003;30667;43.614;1.442;2023-05-20T19:50:25;15.25;15.00;8.75
44933;PMS3003;30667;43.614;1.442;2023-05-20T19:52:51;13.25;12.00;7.00
44933;PMS3003;30667;43.614;1.442;2023-05-20T19:55:16;14.50;14.00;9.00
44933;PMS3003;30667;43.614;1.442;2023-05-20T19:57:42;12.00;12.00;8.00
44933;PMS3003;30667;43.614;1.442;2023-05-20T20:00:10;14.40;13.80;9.00
44933;PMS3003;30667;43.614;1.442;2023-05-20T20:02:36;14.00;13.60;8.80
44933;PMS3003;30667;43.614;1.442;2023-05-20T20:05:02;14.75;14.00;9.00
44933;PMS3003;30667;43.614;1.442;2023-05-20T20:07:28;14.40;14.40;8.60
44933;PMS3003;30667;43.614;1.442;2023-05-20T20:09:53;14.25;14.25;9.50
44933;PMS3003;30667;43.614;1.442;2023-05-20T20:12:22;15.50;14.50;9.50
44933;PMS3003;30667;43.614;1.442;2023-05-20T20:14:48;14.00;13.60;9.00
44933;PMS3003;30667;43.614;1.442;2023-05-20T20:17:15;14.20;14.20;9.20
44933;PMS3003;30667;43.614;1.442;2023-05-20T20:19:41;15.75;14.75;8.75
44933;PMS3003;30667;43.614;1.442;2023-05-20T20:22:10;16.20;14.80;10.00
44933;PMS3003;30667;43.614;1.442;2023-05-20T20:24:35;14.00;14.00;8.00
44933;PMS3003;30667;43.614;1.442;2023-05-20T20:27:01;16.00;15.00;9.75
44933;PMS3003;30667;43.614;1.442;2023-05-20T20:29:26;13.75;13.00;9.00
44933;PMS3003;30667;43.614;1.442;2023-05-20T20:31:52;17.75;16.25;9.75
44933;PMS3003;30667;43.614;1.442;2023-05-20T20:34:18;14.60;14.00;8.80
44933;PMS3003;30667;43.614;1.442;2023-05-20T20:36:43;15.00;14.25;9.00
44933;PMS3003;30667;43.614;1.442;2023-05-20T20:39:11;15.00;15.00;9.00
44933;PMS3003;30667;43.614;1.442;2023-05-20T20:41:42;15.40;15.00;10.00
44933;PMS3003;30667;43.614;1.442;2023-05-20T20:44:14;15.60;15.00;9.00
44933;PMS3003;30667;43.614;1.442;2023-05-20T20:46:42;13.20;11.40;8.20
44933;PMS3003;30667;43.614;1.442;2023-05-20T20:49:08;15.00;15.00;9.00
44933;PMS3003;30667;43.614;1.442;2023-05-20T20:51:33;16.75;15.50;9.00
44933;PMS3003;30667;43.614;1.442;2023-05-20T20:53:59;17.00;15.50;9.50
44933;PMS3003;30667;43.614;1.442;2023-05-20T20:56:24;14.75;14.00;9.00
44933;PMS3003;30667;43.614;1.442;2023-05-20T20:58:49;14.75;14.00;9.00
44933;PMS3003;30667;43.614;1.442;2023-05-20T21:01:18;16.00;15.00;9.40
44933;PMS3003;30667;43.614;1.442;2023-05-20T21:03:43;15.00;14.00;8.20
44933;PMS3003;30667;43.614;1.442;2023-05-20T21:06:09;15.00;13.00;8.50
44933;PMS3003;30667;43.614;1.442;2023-05-20T21:08:37;15.80;14.40;8.40
44933;PMS3003;30667;43.614;1.442;2023-05-20T21:11:02;10.60;10.00;7.60
44933;PMS3003;30667;43.614;1.442;2023-05-20T21:13:28;14.00;13.00;8.25
44933;PMS3003;30667;43.614;1.442;2023-05-20T21:15:54;11.40;10.60;7.80
44933;PMS3003;30667;43.614;1.442;2023-05-20T21:18:20;11.60;11.00;8.00
44933;PMS3003;30667;43.614;1.442;2023-05-20T21:20:47;13.00;12.40;7.80
44933;PMS3003;30667;43.614;1.442;2023-05-20T21:23:13;15.00;12.40;7.40
44933;PMS3003;30667;43.614;1.442;2023-05-20T21:25:39;11.00;11.00;7.20
44933;PMS3003;30667;43.614;1.442;2023-05-20T21:28:04;14.00;11.00;8.00
44933;PMS3003;30667;43.614;1.442;2023-05-20T21:30:30;13.25;11.00;8.00
44933;PMS3003;30667;43.614;1.442;2023-05-20T21:32:55;12.25;11.50;8.50
44933;PMS3003;30667;43.614;1.442;2023-05-20T21:35:20;12.75;12.75;7.50
44933;PMS3003;30667;43.614;1.442;2023-05-20T21:37:46;14.75;13.00;8.25
44933;PMS3003;30667;43.614;1.442;2023-05-20T21:40:11;15.00;14.00;8.00
44933;PMS3003;30667;43.614;1.442;2023-05-20T21:42:37;12.00;12.00;8.00
44933;PMS3003;30667;43.614;1.442;2023-05-20T21:45:02;14.00;11.00;8.00
44933;PMS3003;30667;43.614;1.442;2023-05-20T21:47:28;14.75;14.75;9.50
44933;PMS3003;30667;43.614;1.442;2023-05-20T21:49:53;13.50;11.75;7.00
44933;PMS3003;30667;43.614;1.442;2023-05-20T21:52:19;13.00;13.00;8.00
44933;PMS3003;30667;43.614;1.442;2023-05-20T21:54:44;11.50;10.75;7.75
44933;PMS3003;30667;43.614;1.442;2023-05-20T21:57:09;13.50;13.00;8.00
44933;PMS3003;30667;43.614;1.442;2023-05-20T21:59:35;16.00;14.50;9.25
44933;PMS3003;30667;43.614;1.442;2023-05-20T22:02:00;13.75;12.25;7.50
44933;PMS3003;30667;43.614;1.442;2023-05-20T22:04:26;11.25;10.75;8.00
44933;PMS3003;30667;43.614;1.442;2023-05-20T22:06:52;12.40;11.80;8.00
44933;PMS3003;30667;43.614;1.442;2023-05-20T22:09:18;14.20;12.80;8.00
44933;PMS3003;30667;43.614;1.442;2023-05-20T22:11:43;13.50;12.50;8.50
44933;PMS3003;30667;43.614;1.442;2023-05-20T22:14:11;14.00;13.20;8.40
44933;PMS3003;30667;43.614;1.442;2023-05-20T22:16:40;12.20;11.80;8.00
44933;PMS3003;30667;43.614;1.442;2023-05-20T22:19:10;12.80;12.20;7.40
44933;PMS3003;30667;43.614;1.442;2023-05-20T22:21:40;12.80;12.80;8.00
44933;PMS3003;30667;43.614;1.442;2023-05-20T22:24:09;15.40;14.00;8.00
44933;PMS3003;30667;43.614;1.442;2023-05-20T22:26:35;13.60;13.60;8.60
44933;PMS3003;30667;43.614;1.442;2023-05-20T22:29:02;14.40;13.80;9.00
44933;PMS3003;30667;43.614;1.442;2023-05-20T22:31:28;14.00;14.00;8.00
44933;PMS3003;30667;43.614;1.442;2023-05-20T22:33:53;13.00;13.00;7.75
44933;PMS3003;30667;43.614;1.442;2023-05-20T22:36:18;13.75;11.00;8.00
44933;PMS3003;30667;43.614;1.442;2023-05-20T22:38:44;14.50;13.00;8.00
44933;PMS3003;30667;43.614;1.442;2023-05-20T22:41:09;15.75;15.25;9.00
44933;PMS3003;30667;43.614;1.442;2023-05-20T22:43:35;13.50;12.75;8.00
44933;PMS3003;30667;43.614;1.442;2023-05-20T22:46:01;13.25;13.00;8.00
44933;PMS3003;30667;43.614;1.442;2023-05-20T22:48:26;15.00;14.00;9.60
44933;PMS3003;30667;43.614;1.442;2023-05-20T22:50:52;14.00;13.25;8.75
44933;PMS3003;30667;43.614;1.442;2023-05-20T22:53:18;16.00;15.00;9.25
44933;PMS3003;30667;43.614;1.442;2023-05-20T22:55:44;14.80;14.20;9.40
44933;PMS3003;30667;43.614;1.442;2023-05-20T22:58:09;14.50;14.50;8.75
44933;PMS3003;30667;43.614;1.442;2023-05-20T23:00:36;15.00;13.40;8.00
44933;PMS3003;30667;43.614;1.442;2023-05-20T23:03:02;14.00;13.60;8.20
44933;PMS3003;30667;43.614;1.442;2023-05-20T23:05:28;12.40;11.40;8.00
44933;PMS3003;30667;43.614;1.442;2023-05-20T23:07:54;15.60;13.80;8.80
44933;PMS3003;30667;43.614;1.442;2023-05-20T23:10:20;15.00;13.80;8.40
44933;PMS3003;30667;43.614;1.442;2023-05-20T23:12:46;14.75;14.00;8.00
44933;PMS3003;30667;43.614;1.442;2023-05-20T23:15:11;15.25;14.00;9.00
44933;PMS3003;30667;43.614;1.442;2023-05-20T23:17:37;14.50;14.00;8.00
44933;PMS3003;30667;43.614;1.442;2023-05-20T23:20:03;14.80;14.20;9.00
44933;PMS3003;30667;43.614;1.442;2023-05-20T23:22:35;16.80;15.00;8.60
44933;PMS3003;30667;43.614;1.442;2023-05-20T23:25:02;15.00;15.00;10.00
44933;PMS3003;30667;43.614;1.442;2023-05-20T23:27:27;15.00;14.00;9.80
44933;PMS3003;30667;43.614;1.442;2023-05-20T23:29:53;14.00;13.50;9.00
44933;PMS3003;30667;43.614;1.442;2023-05-20T23:32:18;18.00;18.00;10.00
44933;PMS3003;30667;43.614;1.442;2023-05-20T23:34:44;15.50;14.00;8.25
44933;PMS3003;30667;43.614;1.442;2023-05-20T23:37:10;16.60;15.40;9.00
44933;PMS3003;30667;43.614;1.442;2023-05-20T23:39:36;15.50;14.75;9.50
44933;PMS3003;30667;43.614;1.442;2023-05-20T23:42:01;18.75;16.75;10.00
44933;PMS3003;30667;43.614;1.442;2023-05-20T23:44:27;15.75;14.75;9.00
44933;PMS3003;30667;43.614;1.442;2023-05-20T23:46:52;15.75;15.00;10.00
44933;PMS3003;30667;43.614;1.442;2023-05-20T23:49:17;18.75;16.50;8.75
44933;PMS3003;30667;43.614;1.442;2023-05-20T23:51:46;15.60;14.80;10.00
44933;PMS3003;30667;43.614;1.442;2023-05-20T23:54:11;18.00;15.75;11.00
44933;PMS3003;30667;43.614;1.442;2023-05-20T23:56:40;15.80;14.80;10.00
44933;PMS3003;30667;43.614;1.442;2023-05-20T23:59:05;14.00;14.00;9.00
